Aurora, IL

12:54 AM CST on December 18, 2014 (GMT -0600)
Stonehaven | Change Station
CLOSE
Current Station
Personal Weather Station
Location: Aurora, IL
Elevation: 699 ft
Nearby Weather Stations

Elev 699 ft 41.74 °N, 88.21 °W | Updated 6 minutes ago

Overcast
Overcast
23.5 °F
Feels Like 18 °F
N
4.2
Wind Variable Wind from NNW

Today
High -- | Low -- °F
--% Chance of Precip.
Yesterday
High -- | Low -- °F
Precip. -- in
7:15 AM 4:24 PM
Waning Crescent, 16% visible
Pressure 30.32 in
Visibility 10.0 miles
Clouds Overcast 2100 ft
Windchill 18 °F
Dew Point 18 °F
Humidity 79%
Rainfall 0.00 in
Snow Depth Not available.
UV 0 out of 12
Pollen .10 out of 12
Air Quality Not available.
Flu Activity Not available.
METAR KDPA 180552Z AUTO 30003KT 10SM OVC021 M04/M09 A3028 RMK AO2 SLP266 T10441094 11039 21044 410221044 51013

More Conditions Fewer Conditions

Pressure 30.32 in
Visibility 10.0 miles
Clouds Overcast 2100 ft
Windchill 18 °F
Dew Point 18 °F
Humidity 79%
Rainfall 0.00 in
Snow Depth Not available.
UV 0 out of 12
Pollen .10 out of 12
Air Quality Not available.
Flu Activity Not available.
METAR KDPA 180552Z AUTO 30003KT 10SM OVC021 M04/M09 A3028 RMK AO2 SLP266 T10441094 11039 21044 410221044 51013

More Conditions Fewer Conditions

10-Day Weather Forecast

Almanac

Astronomy

Dec. 18, 2014 Rise Set
Actual Time
Civil Twilight
Nautical Twilight
Astronomical Twilight
Moon
Length of Visible Light
Length of Day
Tomorrow will be .
, % of the Moon is Illuminated

Today's Extremes

State Highs State Lows

Community

WunderPhotos

Upload Photos

1,778,897 photos uploaded!

WunderBlogs® & News

Nearby

Air Quality

  Air Quality AQ Index Pollutant
Not available.

Snow Depth

Station Depth Elevation

Earthquake Activity

City Distance Mag. Time & Date
Minimum magnitude displayed is 2.5.

Coastal Water Temperatures

Place Temperature

Nearby Weather Stations